createdAt,value
2017-07-19T00:00:45.313Z,22.30
2017-07-19T00:03:13.520Z,22.40
2017-07-19T00:05:40.981Z,22.40
2017-07-19T00:08:08.415Z,22.40
2017-07-19T00:10:36.622Z,22.40
2017-07-19T00:13:04.078Z,22.30
2017-07-19T00:15:31.542Z,22.30
2017-07-19T00:17:58.988Z,22.10
2017-07-19T00:20:26.449Z,22.10
2017-07-19T00:22:54.681Z,22.10
2017-07-19T00:25:22.137Z,22.10
2017-07-19T00:27:49.593Z,22.10
2017-07-19T00:30:17.051Z,22.20
2017-07-19T00:32:44.514Z,22.20
2017-07-19T00:35:11.965Z,22.20
2017-07-19T00:37:39.422Z,22.20
2017-07-19T00:40:06.896Z,22.30
2017-07-19T00:42:34.355Z,22.20
2017-07-19T00:45:01.806Z,22.10
2017-07-19T00:47:29.264Z,22.20
2017-07-19T00:49:56.710Z,22.20
2017-07-19T00:52:24.925Z,22.10
2017-07-19T00:54:52.389Z,22.10
2017-07-19T00:57:19.844Z,22.10
2017-07-19T00:59:47.303Z,22.20
2017-07-19T01:02:14.761Z,22.20
2017-07-19T01:04:42.217Z,22.20
2017-07-19T01:07:09.668Z,22.10
2017-07-19T01:09:37.889Z,21.80
2017-07-19T01:12:05.348Z,21.70
2017-07-19T01:14:33.581Z,21.80
2017-07-19T01:17:01.809Z,21.80
2017-07-19T01:19:29.267Z,21.70
2017-07-19T01:21:56.720Z,21.80
2017-07-19T01:24:24.186Z,21.90
2017-07-19T01:26:51.637Z,21.80
2017-07-19T01:29:19.084Z,21.70
2017-07-19T01:31:47.298Z,21.70
2017-07-19T01:34:14.740Z,21.70
2017-07-19T01:36:42.201Z,21.80
2017-07-19T01:39:09.665Z,21.70
2017-07-19T01:41:37.150Z,21.80
2017-07-19T01:44:04.593Z,21.80
2017-07-19T01:46:32.057Z,21.90
2017-07-19T01:48:59.521Z,21.70
2017-07-19T01:51:26.970Z,21.70
2017-07-19T01:53:55.192Z,21.70
2017-07-19T01:56:22.649Z,21.60
2017-07-19T01:58:50.118Z,21.70
2017-07-19T02:01:17.561Z,21.70
2017-07-19T02:03:44.989Z,21.70
2017-07-19T02:06:13.209Z,21.70
2017-07-19T02:08:40.674Z,21.60
2017-07-19T02:11:08.173Z,21.70
2017-07-19T02:13:35.634Z,21.70
2017-07-19T02:16:03.085Z,21.70
2017-07-19T02:18:30.536Z,21.70
2017-07-19T02:20:58.005Z,21.60
2017-07-19T02:23:26.144Z,21.50
2017-07-19T02:25:53.606Z,21.50
2017-07-19T02:28:21.068Z,21.60
2017-07-19T02:30:48.524Z,21.60
2017-07-19T02:33:15.979Z,21.60
2017-07-19T02:35:44.198Z,21.50
2017-07-19T02:38:11.652Z,21.50
2017-07-19T02:40:39.088Z,21.40
2017-07-19T02:43:07.300Z,21.30
2017-07-19T02:45:41.043Z,21.30
2017-07-19T02:48:08.501Z,21.40
2017-07-19T02:50:35.965Z,21.40
2017-07-19T02:53:03.417Z,21.50
2017-07-19T02:55:30.861Z,21.50
2017-07-19T02:57:58.317Z,21.50
2017-07-19T03:00:25.773Z,21.50
2017-07-19T03:02:53.233Z,21.50
2017-07-19T03:05:20.683Z,21.30
2017-07-19T03:07:48.137Z,21.30
2017-07-19T03:10:16.358Z,21.20
2017-07-19T03:12:43.808Z,21.20
2017-07-19T03:15:11.268Z,21.10
2017-07-19T03:17:38.728Z,21.00
2017-07-19T03:20:06.192Z,20.80
2017-07-19T03:22:45.586Z,20.70
2017-07-19T03:25:13.816Z,20.70
2017-07-19T03:27:41.273Z,20.70
2017-07-19T03:30:08.733Z,20.70
2017-07-19T03:32:36.232Z,20.60
2017-07-19T03:35:03.688Z,20.50
2017-07-19T03:37:31.152Z,20.40
2017-07-19T03:39:58.605Z,20.30
2017-07-19T03:42:26.062Z,20.40
2017-07-19T03:44:53.508Z,20.40
2017-07-19T03:47:20.972Z,20.30
2017-07-19T03:49:48.437Z,20.20
2017-07-19T03:52:15.893Z,20.10
2017-07-19T03:54:43.344Z,20.10
2017-07-19T03:57:10.804Z,20.00
2017-07-19T03:59:38.244Z,19.90
2017-07-19T04:02:06.464Z,19.80
2017-07-19T04:04:33.927Z,19.80
2017-07-19T04:07:01.364Z,19.80
2017-07-19T04:09:29.585Z,19.70
2017-07-19T04:11:57.044Z,19.70
2017-07-19T04:14:26.213Z,19.80
2017-07-19T04:16:53.669Z,19.80
2017-07-19T04:19:21.905Z,19.70
2017-07-19T04:21:49.362Z,19.70
2017-07-19T04:24:16.820Z,19.70
2017-07-19T04:26:44.289Z,19.60
2017-07-19T04:29:11.777Z,19.60
2017-07-19T04:31:39.246Z,19.60
2017-07-19T04:34:06.694Z,19.70
2017-07-19T04:36:34.145Z,19.70
2017-07-19T04:39:01.606Z,19.80
2017-07-19T04:41:29.052Z,20.00
2017-07-19T04:43:56.769Z,20.10
2017-07-19T04:46:24.990Z,20.20
2017-07-19T04:48:52.457Z,20.20
2017-07-19T04:51:19.927Z,20.30
2017-07-19T04:53:47.379Z,20.40
2017-07-19T04:56:14.837Z,20.50
2017-07-19T04:58:42.292Z,20.50
2017-07-19T05:01:09.727Z,20.60
2017-07-19T05:03:37.178Z,20.60
2017-07-19T05:06:04.629Z,20.70
2017-07-19T05:08:32.081Z,20.70
2017-07-19T05:10:59.533Z,20.70
2017-07-19T05:13:27.004Z,20.80
2017-07-19T05:15:54.450Z,20.80
2017-07-19T05:18:21.909Z,20.80
2017-07-19T05:20:49.373Z,20.90
2017-07-19T05:23:16.826Z,20.90
2017-07-19T05:25:44.500Z,20.90
2017-07-19T05:28:12.757Z,20.90
2017-07-19T05:30:40.229Z,20.90
2017-07-19T05:33:07.689Z,20.90
2017-07-19T05:35:35.148Z,20.90
2017-07-19T05:38:02.604Z,21.00
2017-07-19T05:40:30.064Z,21.00
2017-07-19T05:42:58.561Z,21.00
2017-07-19T05:45:26.012Z,21.10
2017-07-19T05:47:53.465Z,21.10
2017-07-19T05:50:21.689Z,21.20
2017-07-19T05:52:49.128Z,21.20
2017-07-19T05:55:16.580Z,21.20
2017-07-19T05:57:44.805Z,21.30
2017-07-19T06:00:12.265Z,21.30
2017-07-19T06:02:39.721Z,21.30
2017-07-19T06:05:07.178Z,21.40
2017-07-19T06:07:34.637Z,21.40
2017-07-19T06:10:02.088Z,21.50
2017-07-19T06:12:29.542Z,21.50
2017-07-19T06:14:57.005Z,21.60
2017-07-19T06:17:25.225Z,21.70
2017-07-19T06:19:52.693Z,21.60
2017-07-19T06:22:20.169Z,21.70
2017-07-19T06:24:47.620Z,21.70
2017-07-19T06:27:15.944Z,21.80
2017-07-19T06:29:44.169Z,21.90
2017-07-19T06:32:11.621Z,21.90
2017-07-19T06:34:39.085Z,22.00
2017-07-19T06:37:06.531Z,22.00
2017-07-19T06:39:33.994Z,22.10
2017-07-19T06:42:01.462Z,22.10
2017-07-19T06:44:28.909Z,22.20
2017-07-19T06:46:56.365Z,22.20
2017-07-19T06:49:25.276Z,22.30
2017-07-19T06:51:52.985Z,22.30
2017-07-19T06:54:20.429Z,22.40
2017-07-19T06:56:47.890Z,22.40
2017-07-19T06:59:15.365Z,22.50
2017-07-19T07:01:42.820Z,22.60
2017-07-19T07:04:10.283Z,22.60
2017-07-19T07:06:37.768Z,22.70
2017-07-19T07:09:05.220Z,22.80
2017-07-19T07:11:32.679Z,22.90
2017-07-19T07:14:00.145Z,23.00
2017-07-19T07:16:27.605Z,23.20
2017-07-19T07:18:55.057Z,23.30
2017-07-19T07:21:22.514Z,23.30
2017-07-19T07:23:49.961Z,23.40
2017-07-19T07:26:17.420Z,23.40
2017-07-19T07:28:44.880Z,23.50
2017-07-19T07:31:12.329Z,23.60
2017-07-19T07:33:40.544Z,23.90
2017-07-19T07:36:07.992Z,23.80
2017-07-19T07:38:35.452Z,23.90
2017-07-19T07:41:03.061Z,24.00
2017-07-19T07:43:30.522Z,24.10
2017-07-19T07:45:57.972Z,24.20
2017-07-19T07:48:25.429Z,24.20
2017-07-19T07:50:52.885Z,24.20
2017-07-19T07:53:20.345Z,24.30
2017-07-19T07:55:47.793Z,24.40
2017-07-19T07:58:15.285Z,24.40
2017-07-19T08:00:42.748Z,24.50
2017-07-19T08:03:10.201Z,24.50
2017-07-19T08:05:37.665Z,24.60
2017-07-19T08:08:05.121Z,24.60
2017-07-19T08:10:32.585Z,24.70
2017-07-19T08:13:00.028Z,24.80
2017-07-19T08:15:28.301Z,24.90
2017-07-19T08:17:56.556Z,25.10
2017-07-19T08:20:24.014Z,25.10
2017-07-19T08:22:51.545Z,25.10
2017-07-19T08:25:19.031Z,25.20
2017-07-19T08:27:46.492Z,25.40
2017-07-19T08:30:13.950Z,25.50
2017-07-19T08:32:41.430Z,25.60
2017-07-19T08:35:08.962Z,25.60
2017-07-19T08:37:36.418Z,25.70
2017-07-19T08:40:03.880Z,25.80
2017-07-19T08:42:31.341Z,25.90
2017-07-19T08:44:58.805Z,25.90
2017-07-19T08:47:26.266Z,26.00
2017-07-19T08:49:53.725Z,26.10
2017-07-19T08:52:21.198Z,26.20
2017-07-19T08:54:48.681Z,26.20
2017-07-19T08:57:16.131Z,26.20
2017-07-19T08:59:43.587Z,26.30
2017-07-19T09:02:11.024Z,26.50
2017-07-19T09:04:38.506Z,26.50
2017-07-19T09:07:05.963Z,26.60
2017-07-19T09:09:33.429Z,26.70
2017-07-19T09:12:00.893Z,26.70
2017-07-19T09:14:28.341Z,26.80
2017-07-19T09:16:55.798Z,26.90
2017-07-19T09:19:24.077Z,27.00
2017-07-19T09:21:51.610Z,27.00
2017-07-19T09:24:19.065Z,27.00
2017-07-19T09:26:46.641Z,27.00
2017-07-19T09:29:14.097Z,27.10
2017-07-19T09:31:41.552Z,27.10
2017-07-19T09:34:09.006Z,27.20
2017-07-19T09:36:36.468Z,27.20
2017-07-19T09:39:03.926Z,27.30
2017-07-19T09:41:31.390Z,27.40
2017-07-19T09:43:58.849Z,27.40
2017-07-19T09:46:26.308Z,27.40
2017-07-19T09:48:53.765Z,27.40
2017-07-19T09:51:21.221Z,27.50
2017-07-19T09:53:48.681Z,27.70
2017-07-19T09:56:16.140Z,27.80
2017-07-19T09:58:43.616Z,27.90
2017-07-19T10:01:11.069Z,28.10
2017-07-19T10:03:38.539Z,28.10
2017-07-19T10:06:05.993Z,28.10
2017-07-19T10:08:33.478Z,28.20
2017-07-19T10:11:00.937Z,28.30
2017-07-19T10:13:28.385Z,28.40
2017-07-19T10:15:55.846Z,28.40
2017-07-19T10:18:23.293Z,28.50
2017-07-19T10:20:50.751Z,28.60
2017-07-19T10:23:18.204Z,28.70
2017-07-19T10:25:46.432Z,28.80
2017-07-19T10:28:13.877Z,28.80
2017-07-19T10:30:41.346Z,28.90
2017-07-19T10:33:08.786Z,28.90
2017-07-19T10:35:36.261Z,29.00
2017-07-19T10:38:03.701Z,29.10
2017-07-19T10:40:31.935Z,29.00
2017-07-19T10:42:59.385Z,29.00
2017-07-19T10:45:26.829Z,29.00
2017-07-19T10:47:54.294Z,29.10
2017-07-19T10:50:22.644Z,29.20
2017-07-19T10:52:50.865Z,29.30
2017-07-19T10:55:18.329Z,29.30
2017-07-19T10:57:45.789Z,29.30
2017-07-19T11:00:13.245Z,29.20
2017-07-19T11:02:40.706Z,29.20
2017-07-19T11:05:08.153Z,29.10
2017-07-19T11:07:35.618Z,29.10
2017-07-19T11:10:03.080Z,29.10
2017-07-19T11:12:31.965Z,29.10
2017-07-19T11:15:00.180Z,29.20
2017-07-19T11:17:27.634Z,29.20
2017-07-19T11:19:55.084Z,29.30
2017-07-19T11:22:22.540Z,29.30
2017-07-19T11:24:49.996Z,29.30
2017-07-19T11:27:18.207Z,29.40
2017-07-19T11:29:45.672Z,29.40
2017-07-19T11:32:13.117Z,29.40
2017-07-19T11:34:40.585Z,29.60
2017-07-19T11:37:08.041Z,29.70
2017-07-19T11:39:35.489Z,29.90
2017-07-19T11:42:03.715Z,30.30
2017-07-19T11:44:31.157Z,30.30
2017-07-19T11:46:58.616Z,30.40
2017-07-19T11:49:26.081Z,30.50
2017-07-19T11:51:53.541Z,30.60
2017-07-19T11:54:21.005Z,30.80
2017-07-19T11:56:49.629Z,31.00
2017-07-19T11:59:17.079Z,31.20
2017-07-19T12:01:44.533Z,31.30
2017-07-19T12:04:11.988Z,31.40
2017-07-19T12:06:39.459Z,31.60
2017-07-19T12:09:06.920Z,31.70
2017-07-19T12:11:34.372Z,31.70
2017-07-19T12:14:01.844Z,31.70
2017-07-19T12:16:29.319Z,31.90
2017-07-19T12:18:56.776Z,32.10
2017-07-19T12:21:24.241Z,32.00
2017-07-19T12:23:51.700Z,32.00
2017-07-19T12:26:19.153Z,32.30
2017-07-19T12:28:46.613Z,32.40
2017-07-19T12:31:14.072Z,32.50
2017-07-19T12:33:41.532Z,32.60
2017-07-19T12:36:08.997Z,32.70
2017-07-19T12:38:36.449Z,32.90
2017-07-19T12:41:03.921Z,33.00
2017-07-19T12:43:31.364Z,33.00
2017-07-19T12:45:58.808Z,32.90
2017-07-19T12:48:27.029Z,32.80
2017-07-19T12:50:54.501Z,32.80
2017-07-19T12:53:21.956Z,32.90
2017-07-19T12:55:49.409Z,33.00
2017-07-19T12:58:17.249Z,33.00
2017-07-19T13:00:44.737Z,33.20
2017-07-19T13:03:12.189Z,33.20
2017-07-19T13:05:39.641Z,33.10
2017-07-19T13:08:07.090Z,33.00
2017-07-19T13:10:34.556Z,33.10
2017-07-19T13:13:02.014Z,33.30
2017-07-19T13:15:29.469Z,33.60
2017-07-19T13:17:56.938Z,33.80
2017-07-19T13:20:24.395Z,33.90
2017-07-19T13:22:51.849Z,33.80
2017-07-19T13:25:19.304Z,33.60
2017-07-19T13:27:46.763Z,33.30
2017-07-19T13:30:14.205Z,33.10
2017-07-19T13:32:41.665Z,32.90
2017-07-19T13:35:09.126Z,32.70
2017-07-19T13:37:36.589Z,32.50
2017-07-19T13:40:04.045Z,32.30
2017-07-19T13:42:31.501Z,32.20
2017-07-19T13:44:58.949Z,32.10
2017-07-19T13:47:26.412Z,32.00
2017-07-19T13:49:54.620Z,31.80
2017-07-19T13:52:22.081Z,31.70
2017-07-19T13:54:49.545Z,31.60
2017-07-19T13:57:17.005Z,31.20
2017-07-19T13:59:44.471Z,30.70
2017-07-19T14:02:11.938Z,30.30
2017-07-19T14:04:39.397Z,30.10
2017-07-19T14:07:06.847Z,29.90
2017-07-19T14:09:34.309Z,29.70
2017-07-19T14:12:01.768Z,29.60
2017-07-19T14:14:29.225Z,29.30
2017-07-19T14:16:56.685Z,28.80
2017-07-19T14:19:24.137Z,28.40
2017-07-19T14:21:52.364Z,27.30
2017-07-19T14:24:19.829Z,27.30
2017-07-19T14:26:48.212Z,26.90
2017-07-19T14:29:15.689Z,26.60
2017-07-19T14:31:43.129Z,26.30
2017-07-19T14:34:10.584Z,26.10
2017-07-19T14:36:38.044Z,25.90
2017-07-19T14:39:05.519Z,25.70
2017-07-19T14:41:32.976Z,25.90
2017-07-19T14:44:00.436Z,25.80
2017-07-19T14:46:27.909Z,25.80
2017-07-19T14:48:55.353Z,25.90
2017-07-19T14:51:22.820Z,25.90
2017-07-19T14:53:50.283Z,25.90
2017-07-19T14:56:17.754Z,25.90
2017-07-19T14:58:45.216Z,25.70
2017-07-19T15:01:12.673Z,25.70
2017-07-19T15:03:40.121Z,25.70
2017-07-19T15:06:07.581Z,25.60
2017-07-19T15:08:35.040Z,25.60
2017-07-19T15:11:03.285Z,25.60
2017-07-19T15:13:30.745Z,25.60
2017-07-19T15:15:58.202Z,25.50
2017-07-19T15:18:25.675Z,25.10
2017-07-19T15:20:53.129Z,24.80
2017-07-19T15:23:20.621Z,24.80
2017-07-19T15:25:48.045Z,24.90
2017-07-19T15:28:15.505Z,24.90
2017-07-19T15:30:42.969Z,24.80
2017-07-19T15:33:10.411Z,24.80
2017-07-19T15:35:37.880Z,24.90
2017-07-19T15:38:05.361Z,24.80
2017-07-19T15:40:32.825Z,24.80
2017-07-19T15:43:00.343Z,24.80
2017-07-19T15:45:28.556Z,24.80
2017-07-19T15:47:56.021Z,24.70
2017-07-19T15:50:23.484Z,24.70
2017-07-19T15:52:50.950Z,24.60
2017-07-19T15:55:18.414Z,24.60
2017-07-19T15:57:45.873Z,24.50
2017-07-19T16:00:13.388Z,24.40
2017-07-19T16:02:41.609Z,24.40
2017-07-19T16:05:09.085Z,24.40
2017-07-19T16:07:36.544Z,24.50
2017-07-19T16:10:04.016Z,24.50
2017-07-19T16:12:31.475Z,24.30
2017-07-19T16:14:58.941Z,24.10
2017-07-19T16:17:26.404Z,24.00
2017-07-19T16:19:53.871Z,23.90
2017-07-19T16:22:21.317Z,23.90
2017-07-19T16:24:48.785Z,24.00
2017-07-19T16:27:16.229Z,24.10
2017-07-19T16:29:43.773Z,23.90
2017-07-19T16:32:11.236Z,23.90
2017-07-19T16:34:38.704Z,23.90
2017-07-19T16:37:06.161Z,23.90
2017-07-19T16:39:33.628Z,23.90
2017-07-19T16:42:01.094Z,23.90
2017-07-19T16:44:28.549Z,23.70
2017-07-19T16:46:56.012Z,23.70
2017-07-19T16:49:23.456Z,23.70
2017-07-19T16:51:51.676Z,23.70
2017-07-19T16:54:19.137Z,23.60
2017-07-19T16:56:46.587Z,23.70
2017-07-19T16:59:14.048Z,23.70
2017-07-19T17:01:41.545Z,23.70
2017-07-19T17:04:09.018Z,23.70
2017-07-19T17:06:36.481Z,23.80
2017-07-19T17:09:04.920Z,23.90
2017-07-19T17:11:32.364Z,24.00
2017-07-19T17:14:00.584Z,24.00
2017-07-19T17:16:28.052Z,24.00
2017-07-19T17:18:55.514Z,24.00
2017-07-19T17:21:22.965Z,24.00
2017-07-19T17:23:50.416Z,24.00
2017-07-19T17:26:17.876Z,24.00
2017-07-19T17:28:45.340Z,24.00
2017-07-19T17:31:12.793Z,23.90
2017-07-19T17:33:40.255Z,23.90
2017-07-19T17:36:08.468Z,24.00
2017-07-19T17:38:35.928Z,24.00
2017-07-19T17:41:03.390Z,24.00
2017-07-19T17:43:30.845Z,24.00
2017-07-19T17:45:58.303Z,24.00
2017-07-19T17:48:25.812Z,24.00
2017-07-19T17:50:53.270Z,24.00
2017-07-19T17:53:20.725Z,24.00
2017-07-19T17:55:48.186Z,23.90
2017-07-19T17:58:15.638Z,23.90
2017-07-19T18:00:43.096Z,23.80
2017-07-19T18:03:10.561Z,23.80
2017-07-19T18:05:38.014Z,23.80
2017-07-19T18:08:05.472Z,23.80
2017-07-19T18:10:32.927Z,23.80
2017-07-19T18:13:00.388Z,23.80
2017-07-19T18:15:27.848Z,23.80
2017-07-19T18:17:55.300Z,23.80
2017-07-19T18:20:22.753Z,23.80
2017-07-19T18:22:50.973Z,23.70
2017-07-19T18:25:18.431Z,23.70
2017-07-19T18:27:45.905Z,23.80
2017-07-19T18:30:13.365Z,23.80
2017-07-19T18:32:40.828Z,23.70
2017-07-19T18:35:08.297Z,23.70
2017-07-19T18:37:35.997Z,23.60
2017-07-19T18:40:03.462Z,23.60
2017-07-19T18:42:30.917Z,23.50
2017-07-19T18:44:58.373Z,23.50
2017-07-19T18:47:25.828Z,23.40
2017-07-19T18:49:53.288Z,23.50
2017-07-19T18:52:20.726Z,23.40
2017-07-19T18:54:48.184Z,23.40
2017-07-19T18:57:17.065Z,23.40
2017-07-19T18:59:44.522Z,23.50
2017-07-19T19:02:11.977Z,23.50
2017-07-19T19:04:40.201Z,23.50
2017-07-19T19:07:07.650Z,23.50
2017-07-19T19:09:35.110Z,23.50
2017-07-19T19:12:02.569Z,23.50
2017-07-19T19:14:30.394Z,23.50
2017-07-19T19:16:57.941Z,23.50
2017-07-19T19:19:25.400Z,23.60
2017-07-19T19:21:52.852Z,23.60
2017-07-19T19:24:20.297Z,23.60
2017-07-19T19:26:47.765Z,23.60
2017-07-19T19:29:15.221Z,23.50
2017-07-19T19:31:42.672Z,23.50
2017-07-19T19:34:10.125Z,23.40
2017-07-19T19:36:37.584Z,23.40
2017-07-19T19:39:05.805Z,23.30
2017-07-19T19:41:33.305Z,23.30
2017-07-19T19:44:00.772Z,23.40
2017-07-19T19:46:28.217Z,23.30
2017-07-19T19:48:55.679Z,23.30
2017-07-19T19:51:23.130Z,23.30
2017-07-19T19:53:50.593Z,23.30
2017-07-19T19:56:18.041Z,23.20
2017-07-19T19:58:45.513Z,23.10
2017-07-19T20:01:12.968Z,23.10
2017-07-19T20:03:40.452Z,23.10
2017-07-19T20:06:07.900Z,23.10
2017-07-19T20:08:35.368Z,23.10
2017-07-19T20:11:02.813Z,23.10
2017-07-19T20:13:30.265Z,23.10
2017-07-19T20:15:57.753Z,23.10
2017-07-19T20:18:25.198Z,23.10
2017-07-19T20:20:52.661Z,23.00
2017-07-19T20:23:20.119Z,23.10
2017-07-19T20:25:47.580Z,23.00
2017-07-19T20:28:15.038Z,23.00
2017-07-19T20:30:42.501Z,23.00
2017-07-19T20:33:09.949Z,22.90
2017-07-19T20:35:37.408Z,22.80
2017-07-19T20:38:04.865Z,22.70
2017-07-19T20:40:33.076Z,22.70
2017-07-19T20:43:00.536Z,22.60
2017-07-19T20:45:28.016Z,22.70
2017-07-19T20:47:55.477Z,22.60
2017-07-19T20:50:22.931Z,22.60
2017-07-19T20:52:50.436Z,22.70
2017-07-19T20:55:17.893Z,22.70
2017-07-19T20:57:45.345Z,22.70
2017-07-19T21:00:12.785Z,22.70
2017-07-19T21:02:40.252Z,22.70
2017-07-19T21:05:07.753Z,22.70
2017-07-19T21:07:35.216Z,22.60
2017-07-19T21:10:02.677Z,22.60
2017-07-19T21:12:30.116Z,22.60
2017-07-19T21:14:57.568Z,22.60
2017-07-19T21:17:25.028Z,22.60
2017-07-19T21:19:52.489Z,22.50
2017-07-19T21:22:19.967Z,22.50
2017-07-19T21:24:47.417Z,22.50
2017-07-19T21:27:14.872Z,22.50
2017-07-19T21:29:42.328Z,22.50
2017-07-19T21:32:09.785Z,22.50
2017-07-19T21:34:37.220Z,22.50
2017-07-19T21:37:05.449Z,22.40
2017-07-19T21:39:32.915Z,22.40
2017-07-19T21:42:00.381Z,22.30
2017-07-19T21:44:27.845Z,22.20
2017-07-19T21:46:55.305Z,22.20
2017-07-19T21:49:22.753Z,22.20
2017-07-19T21:51:50.270Z,22.20
2017-07-19T21:54:18.490Z,22.20
2017-07-19T21:56:45.966Z,22.20
2017-07-19T21:59:13.442Z,22.10
2017-07-19T22:01:41.908Z,22.10
2017-07-19T22:04:09.365Z,22.00
2017-07-19T22:06:36.808Z,22.00
2017-07-19T22:09:04.264Z,21.90
2017-07-19T22:11:32.481Z,21.70
2017-07-19T22:13:59.948Z,21.70
2017-07-19T22:16:27.425Z,21.70
2017-07-19T22:18:54.882Z,21.70
2017-07-19T22:21:22.341Z,21.70
2017-07-19T22:23:49.789Z,21.80
2017-07-19T22:26:17.244Z,21.70
2017-07-19T22:28:44.710Z,21.70
2017-07-19T22:31:12.166Z,21.60
2017-07-19T22:33:39.624Z,21.60
2017-07-19T22:36:07.073Z,21.60
2017-07-19T22:38:34.546Z,21.60
2017-07-19T22:41:01.996Z,21.50
2017-07-19T22:43:29.463Z,21.40
2017-07-19T22:45:56.986Z,21.40
2017-07-19T22:48:24.436Z,21.30
2017-07-19T22:50:51.904Z,21.30
2017-07-19T22:53:19.361Z,21.30
2017-07-19T22:55:46.814Z,21.30
2017-07-19T22:58:14.265Z,21.30
2017-07-19T23:00:41.713Z,21.30
2017-07-19T23:03:09.173Z,21.40
2017-07-19T23:05:36.616Z,21.40
2017-07-19T23:08:04.900Z,21.40
2017-07-19T23:10:33.117Z,21.50
2017-07-19T23:13:00.624Z,21.50
2017-07-19T23:15:28.078Z,21.50
2017-07-19T23:17:55.538Z,21.60
2017-07-19T23:20:22.988Z,21.60
2017-07-19T23:22:50.449Z,21.60
2017-07-19T23:25:17.905Z,21.70
2017-07-19T23:27:45.912Z,21.60
2017-07-19T23:30:13.373Z,21.60
2017-07-19T23:32:40.813Z,21.60
2017-07-19T23:35:08.275Z,21.70
2017-07-19T23:37:35.729Z,21.70
2017-07-19T23:40:03.195Z,21.70
2017-07-19T23:42:30.653Z,21.70
2017-07-19T23:44:58.116Z,21.70
2017-07-19T23:47:25.569Z,21.80
2017-07-19T23:49:53.419Z,21.70
2017-07-19T23:52:21.633Z,21.70
2017-07-19T23:54:49.089Z,21.70
2017-07-19T23:57:16.541Z,21.70
2017-07-19T23:59:44.008Z,21.70
